Time;durP1;ratioP1;P1;durP2;ratioP2;P2;SDS_P1;SDS_P2;PMS_P1;PMS_P2;Temp;Humidity;BMP_temperature;BMP_pressure;BME280_temperature;BME280_humidity;BME280_pressure;Samples;Min_cycle;Max_cycle;Signal;HPM_P1;HPM_P2
2020/12/25 06:21:09;;;;;;;5.23;2.67;;;3.70;99.90;;;;;;5708486;23;20319;-82
2020/12/25 06:23:38;;;;;;;4.80;3.00;;;3.70;99.90;;;;;;5025570;28;20136;-84
2020/12/25 06:26:07;;;;;;;4.80;2.90;;;3.80;99.90;;;;;;5025423;28;20114;-82
2020/12/25 06:28:34;;;;;;;5.22;2.80;;;3.80;99.90;;;;;;5027108;28;20197;-82
2020/12/25 06:31:01;;;;;;;4.32;2.65;;;3.90;99.90;;;;;;5021724;28;20113;-82
2020/12/25 06:33:29;;;;;;;4.60;2.90;;;3.90;99.90;;;;;;5015845;28;20157;-82
2020/12/25 06:35:59;;;;;;;4.93;2.88;;;3.90;99.90;;;;;;5004278;28;20441;-83
2020/12/25 06:38:27;;;;;;;4.47;2.97;;;4.00;99.90;;;;;;5011995;28;20049;-85
2020/12/25 06:40:57;;;;;;;4.45;2.85;;;4.10;99.90;;;;;;5016426;28;20144;-84
2020/12/25 06:43:23;;;;;;;5.00;3.20;;;4.10;99.90;;;;;;5016975;28;20046;-87
2020/12/25 06:45:53;;;;;;;5.05;3.22;;;4.20;99.90;;;;;;5018231;28;20064;-86
2020/12/25 06:48:22;;;;;;;4.75;2.85;;;4.20;99.90;;;;;;5030111;28;20137;-85
2020/12/25 06:50:54;;;;;;;5.32;3.20;;;4.20;99.90;;;;;;5022640;28;20129;-85
2020/12/25 06:56:18;;;;;;;4.45;2.90;;;4.20;99.90;;;;;;5814027;23;20489;-86
2020/12/25 06:58:47;;;;;;;5.70;3.63;;;4.20;99.90;;;;;;4964369;29;20078;-83
2020/12/25 07:01:16;;;;;;;5.35;3.38;;;4.20;99.80;;;;;;4971681;28;20086;-84
2020/12/25 07:03:43;;;;;;;5.25;3.42;;;4.20;99.90;;;;;;4966251;28;20111;-82
2020/12/25 07:06:12;;;;;;;5.75;3.58;;;4.20;99.90;;;;;;4962105;28;20153;-85
2020/12/25 07:08:50;;;;;;;5.60;3.58;;;4.20;99.90;;;;;;4941747;29;20071;-85
2020/12/25 07:11:19;;;;;;;5.60;3.70;;;4.20;99.90;;;;;;4943879;28;20066;-84
2020/12/25 07:13:47;;;;;;;5.53;3.45;;;4.20;99.70;;;;;;4954986;29;20069;-85
2020/12/25 07:16:14;;;;;;;5.38;3.67;;;4.20;99.70;;;;;;4958412;28;20193;-85
2020/12/25 07:18:40;;;;;;;6.60;3.72;;;4.30;99.70;;;;;;4961533;28;20412;-83
2020/12/25 07:21:08;;;;;;;5.45;3.42;;;4.10;99.50;;;;;;4962973;28;20150;-84
2020/12/25 07:23:43;;;;;;;5.80;3.75;;;4.20;99.90;;;;;;4981637;28;20059;-82
2020/12/25 07:26:11;;;;;;;8.18;4.05;;;4.00;99.60;;;;;;4981800;28;20102;-81
2020/12/25 07:28:39;;;;;;;6.30;4.20;;;3.90;99.90;;;;;;4971043;28;20062;-82
2020/12/25 07:31:06;;;;;;;6.85;4.00;;;4.00;99.90;;;;;;4980418;28;20051;-82
2020/12/25 07:33:33;;;;;;;6.45;4.32;;;4.00;99.90;;;;;;4980547;28;20050;-83
2020/12/25 07:36:00;;;;;;;6.65;4.35;;;4.00;99.90;;;;;;4981570;28;20035;-80
2020/12/25 07:38:27;;;;;;;7.35;4.38;;;3.90;99.90;;;;;;4997841;28;20031;-82
2020/12/25 07:40:54;;;;;;;7.80;4.18;;;3.70;99.90;;;;;;4980203;28;20051;-84
2020/12/25 07:43:20;;;;;;;6.60;4.25;;;3.70;99.90;;;;;;4975863;29;20092;-79
2020/12/25 07:56:12;;;;;;;7.68;4.20;;;3.70;99.90;;;;;;5839859;23;20037;-85
2020/12/25 07:58:39;;;;;;;6.82;4.35;;;3.70;99.90;;;;;;5012556;28;20065;-81
2020/12/25 08:01:08;;;;;;;7.07;3.85;;;3.50;99.90;;;;;;5015552;28;20070;-81
2020/12/25 08:06:13;;;;;;;6.32;3.85;;;3.70;99.90;;;;;;5208699;23;20431;-79
2020/12/25 08:08:45;;;;;;;6.75;3.97;;;3.70;99.90;;;;;;4979936;28;20151;-83
2020/12/25 08:11:15;;;;;;;5.90;4.03;;;3.80;99.90;;;;;;4967418;28;20051;-84
2020/12/25 08:13:45;;;;;;;6.28;4.00;;;4.00;99.90;;;;;;4964368;29;20050;-90
2020/12/25 08:57:44;;;;;;;5.68;3.53;;;4.00;99.90;;;;;;5662317;23;20058;-89
2020/12/25 09:00:11;;;;;;;6.15;3.78;;;4.00;99.90;;;;;;5016283;28;20049;-88
2020/12/25 09:02:39;;;;;;;7.13;4.00;;;4.10;99.90;;;;;;4995981;28;20129;-91
2020/12/25 09:05:05;;;;;;;6.05;3.97;;;4.20;99.90;;;;;;5014669;28;20108;-91
2020/12/25 09:07:32;;;;;;;6.63;4.10;;;4.30;99.60;;;;;;4999777;28;20069;-89
2020/12/25 09:10:00;;;;;;;7.55;4.32;;;4.30;99.50;;;;;;4990986;28;20046;-87
2020/12/25 09:12:26;;;;;;;7.13;4.00;;;4.30;99.50;;;;;;4988676;28;20495;-89
2020/12/25 09:20:16;;;;;;;6.55;4.25;;;4.40;99.40;;;;;;5139866;23;20065;-90
2020/12/25 09:22:43;;;;;;;7.25;4.28;;;4.40;99.40;;;;;;5018645;28;20124;-88
2020/12/25 09:25:11;;;;;;;6.97;4.32;;;4.40;99.30;;;;;;5018548;28;20507;-88
2020/12/25 09:27:38;;;;;;;7.25;4.35;;;4.40;98.90;;;;;;5021937;28;20073;-87
2020/12/25 09:30:07;;;;;;;6.78;4.38;;;4.30;99.10;;;;;;5022194;28;20046;-88
2020/12/25 09:32:34;;;;;;;6.85;3.90;;;4.10;99.20;;;;;;5016066;28;20056;-91
2020/12/25 09:35:00;;;;;;;17.98;5.15;;;4.10;99.50;;;;;;5017665;28;20225;-86
2020/12/25 09:37:27;;;;;;;7.18;4.65;;;4.20;99.30;;;;;;5023223;28;20499;-91
2020/12/25 09:39:54;;;;;;;7.22;4.47;;;4.10;99.40;;;;;;5007182;28;20145;-87
2020/12/25 09:42:21;;;;;;;7.18;4.65;;;4.20;99.60;;;;;;5009253;28;20089;-87
2020/12/25 09:44:47;;;;;;;9.45;4.90;;;4.20;99.60;;;;;;5014941;28;20141;-89
2020/12/25 09:47:22;;;;;;;8.13;5.15;;;4.30;99.70;;;;;;4979995;28;20125;-90
2020/12/25 09:49:50;;;;;;;7.28;4.82;;;4.30;99.70;;;;;;5012966;28;20559;-89
2020/12/25 09:52:17;;;;;;;7.28;4.80;;;4.40;99.50;;;;;;4989441;28;20600;-91
2020/12/25 09:54:45;;;;;;;8.10;5.05;;;4.50;99.20;;;;;;5015295;28;20141;-90
2020/12/25 09:57:11;;;;;;;8.50;5.50;;;4.40;99.30;;;;;;4997752;28;20049;-82
2020/12/25 10:02:25;;;;;;;9.77;5.50;;;4.50;99.80;;;;;;5116899;23;20499;-87
2020/12/25 10:04:52;;;;;;;10.48;6.00;;;4.50;99.40;;;;;;5003591;28;20054;-89
2020/12/25 10:07:18;;;;;;;9.18;5.88;;;4.40;99.30;;;;;;5011440;28;20070;-88
2020/12/25 10:09:45;;;;;;;10.70;6.13;;;4.40;99.50;;;;;;5022370;28;20060;-87
2020/12/25 10:12:12;;;;;;;10.30;6.05;;;4.50;99.60;;;;;;4980983;28;20141;-89
2020/12/25 10:14:39;;;;;;;10.13;6.32;;;4.50;99.50;;;;;;5006027;28;20077;-89
2020/12/25 10:17:07;;;;;;;12.88;6.40;;;4.50;99.30;;;;;;4983845;28;20505;-90
2020/12/25 10:19:35;;;;;;;10.52;6.53;;;4.60;99.30;;;;;;4983899;28;20060;-89
2020/12/25 10:22:02;;;;;;;10.98;6.70;;;4.60;99.00;;;;;;5010792;28;20115;-89
2020/12/25 10:24:28;;;;;;;11.25;6.93;;;4.50;99.40;;;;;;5002979;28;20476;-88
2020/12/25 10:26:55;;;;;;;11.82;7.15;;;4.30;99.60;;;;;;5014984;28;20054;-88
2020/12/25 10:29:22;;;;;;;12.13;7.72;;;4.40;99.90;;;;;;5011645;28;20518;-89
2020/12/25 10:31:50;;;;;;;11.23;7.03;;;4.50;99.50;;;;;;5001491;28;20069;-88
2020/12/25 10:34:17;;;;;;;10.82;6.88;;;4.40;99.50;;;;;;5021654;28;20065;-86
2020/12/25 10:36:45;;;;;;;11.10;6.80;;;4.30;99.40;;;;;;4996649;28;20046;-86
2020/12/25 10:39:13;;;;;;;10.75;6.85;;;4.30;99.80;;;;;;4987303;28;20057;-88
2020/12/25 10:41:39;;;;;;;11.65;6.60;;;4.30;99.70;;;;;;5018698;28;20117;-89
2020/12/25 10:44:07;;;;;;;11.73;6.70;;;4.30;99.90;;;;;;4999155;28;20054;-87
2020/12/25 10:46:33;;;;;;;11.75;6.70;;;4.40;99.70;;;;;;5037856;28;20045;-87
2020/12/25 10:49:00;;;;;;;12.05;6.68;;;4.30;99.70;;;;;;5032874;28;20092;-89
2020/12/25 10:54:03;;;;;;;12.35;6.88;;;4.20;99.90;;;;;;5794157;23;20396;-84
2020/12/25 10:56:30;;;;;;;11.40;6.35;;;4.30;99.90;;;;;;4961254;28;20078;-86
2020/12/25 10:58:57;;;;;;;10.48;5.95;;;4.30;99.90;;;;;;4957754;28;20125;-88
2020/12/25 11:01:25;;;;;;;10.77;6.00;;;4.40;99.80;;;;;;4957705;28;20141;-89
2020/12/25 11:03:55;;;;;;;13.65;7.30;;;4.60;99.50;;;;;;4976368;28;20524;-89
2020/12/25 11:06:30;;;;;;;11.48;6.53;;;4.40;99.40;;;;;;4975784;28;20137;-88
2020/12/25 11:08:57;;;;;;;9.57;6.00;;;4.60;99.20;;;;;;4956551;28;20464;-89
2020/12/25 11:11:25;;;;;;;10.85;6.10;;;4.70;98.90;;;;;;4973850;28;20507;-88
2020/12/25 11:13:52;;;;;;;9.98;6.05;;;4.70;99.00;;;;;;4973330;28;20093;-88
2020/12/25 11:16:23;;;;;;;8.52;5.07;;;4.80;99.00;;;;;;4973497;28;20631;-88
2020/12/25 11:18:50;;;;;;;8.50;5.47;;;4.80;98.40;;;;;;4974056;28;20491;-88
2020/12/25 11:21:24;;;;;;;9.25;5.82;;;4.70;98.80;;;;;;4973806;28;20047;-89
2020/12/25 11:23:52;;;;;;;10.45;5.55;;;4.80;98.90;;;;;;4975970;28;20476;-86
2020/12/25 11:26:22;;;;;;;8.55;5.20;;;4.70;98.50;;;;;;4977764;28;20130;-86
2020/12/25 11:28:55;;;;;;;9.20;5.20;;;4.70;98.60;;;;;;4988896;28;20054;-87
2020/12/25 11:33:57;;;;;;;10.10;5.30;;;4.60;98.60;;;;;;5681556;23;20106;-89
2020/12/25 11:36:26;;;;;;;11.23;5.50;;;4.80;98.50;;;;;;4980204;28;20078;-91
2020/12/25 11:38:53;;;;;;;9.27;5.35;;;4.70;98.60;;;;;;5013195;28;20058;-93
2020/12/25 11:41:22;;;;;;;9.65;5.55;;;4.60;98.20;;;;;;4996335;28;20141;-94
2020/12/25 11:43:50;;;;;;;8.65;5.25;;;4.70;98.80;;;;;;4999200;28;20079;-92
2020/12/25 11:46:18;;;;;;;8.25;4.88;;;4.90;98.50;;;;;;5009607;28;20159;-94
2020/12/25 11:48:46;;;;;;;8.88;4.70;;;4.90;99.00;;;;;;5011366;28;20125;-93
2020/12/25 11:51:17;;;;;;;9.02;5.05;;;5.10;98.90;;;;;;4994577;28;20078;-93
2020/12/25 11:53:45;;;;;;;7.63;4.75;;;5.00;98.00;;;;;;4976513;28;20109;-94
2020/12/25 11:56:12;;;;;;;8.07;4.97;;;5.10;98.10;;;;;;4993249;28;20511;-92
2020/12/25 11:58:38;;;;;;;7.70;4.90;;;5.10;98.10;;;;;;5010253;28;20496;-89
2020/12/25 12:01:06;;;;;;;8.15;4.80;;;5.20;98.00;;;;;;5005140;28;20140;-89
2020/12/25 12:03:32;;;;;;;8.43;5.10;;;5.10;97.80;;;;;;4980869;28;20050;-91
2020/12/25 12:06:00;;;;;;;8.70;5.00;;;5.10;97.70;;;;;;4992781;28;20446;-89
2020/12/25 12:08:27;;;;;;;11.23;5.10;;;4.80;98.20;;;;;;4996137;28;20058;-89
2020/12/25 12:10:53;;;;;;;7.38;4.43;;;4.80;98.10;;;;;;4991572;28;20132;-90
2020/12/25 12:13:20;;;;;;;9.52;4.70;;;4.70;97.80;;;;;;5011409;28;20141;-94
2020/12/25 12:15:47;;;;;;;9.25;4.95;;;4.70;97.80;;;;;;5542079;23;20121;-80
2020/12/25 12:18:15;;;;;;;9.27;5.00;;;4.40;97.60;;;;;;5003670;28;20078;-82
2020/12/25 12:20:42;;;;;;;7.90;4.60;;;4.50;97.80;;;;;;4981885;28;20296;-84
2020/12/25 12:23:09;;;;;;;7.53;4.70;;;4.40;98.10;;;;;;4986448;28;20055;-82
2020/12/25 12:25:36;;;;;;;7.60;4.85;;;4.30;98.10;;;;;;4990916;28;20101;-85
2020/12/25 12:28:03;;;;;;;9.65;4.75;;;4.20;98.30;;;;;;4980654;28;20074;-84
2020/12/25 12:30:30;;;;;;;9.15;4.80;;;4.20;98.30;;;;;;4975032;28;20141;-87
2020/12/25 12:32:57;;;;;;;9.88;4.47;;;4.20;98.20;;;;;;5003049;28;20066;-81
2020/12/25 12:35:24;;;;;;;8.20;4.82;;;4.20;98.00;;;;;;4988232;28;20106;-83
2020/12/25 12:37:53;;;;;;;9.15;4.75;;;4.00;98.10;;;;;;5014560;28;20085;-83
2020/12/25 12:40:20;;;;;;;8.25;4.82;;;4.10;98.40;;;;;;5014770;28;20042;-84
2020/12/25 12:47:51;;;;;;;9.30;4.90;;;3.90;98.80;;;;;;5037513;28;20064;-80
2020/12/25 12:52:54;;;;;;;8.13;5.07;;;4.00;99.20;;;;;;5108824;23;20046;-86
2020/12/25 12:55:21;;;;;;;11.73;6.07;;;4.00;98.90;;;;;;5010006;28;20038;-86
2020/12/25 12:57:48;;;;;;;9.85;5.30;;;4.20;98.80;;;;;;4995302;28;20054;-85
2020/12/25 13:00:15;;;;;;;7.10;4.35;;;4.10;98.60;;;;;;5011791;28;20407;-88
2020/12/25 13:08:30;;;;;;;7.57;4.85;;;4.10;98.30;;;;;;5316117;23;20054;-85
2020/12/25 13:10:56;;;;;;;7.47;4.38;;;4.10;98.10;;;;;;4977791;28;20086;-87
2020/12/25 13:13:24;;;;;;;7.38;4.45;;;4.20;98.00;;;;;;4981306;28;20059;-84
2020/12/25 13:15:53;;;;;;;7.05;4.15;;;4.10;98.00;;;;;;4997453;28;20090;-83
2020/12/25 13:18:19;;;;;;;7.53;4.05;;;3.70;98.20;;;;;;4990164;28;20130;-84
2020/12/25 13:20:46;;;;;;;7.90;4.05;;;3.80;98.20;;;;;;4988658;28;20078;-84
2020/12/25 13:23:13;;;;;;;7.97;4.32;;;3.70;98.40;;;;;;4962941;28;20046;-85
2020/12/25 13:25:41;;;;;;;7.03;3.85;;;3.80;98.00;;;;;;4958968;28;20050;-86
2020/12/25 13:28:07;;;;;;;6.45;3.90;;;3.80;98.20;;;;;;4944205;28;20405;-87
2020/12/25 13:30:34;;;;;;;7.07;4.50;;;3.80;98.00;;;;;;4976831;28;20053;-84
2020/12/25 13:33:01;;;;;;;8.25;4.60;;;3.80;98.20;;;;;;4941593;28;20083;-83
2020/12/25 13:35:28;;;;;;;9.77;5.68;;;3.80;97.70;;;;;;4989044;28;20058;-82
2020/12/25 13:37:55;;;;;;;7.57;4.70;;;3.80;97.60;;;;;;4984428;28;20074;-83
2020/12/25 13:40:22;;;;;;;8.50;4.20;;;3.90;97.40;;;;;;4968136;28;20050;-84
2020/12/25 13:42:50;;;;;;;9.00;3.97;;;3.80;97.30;;;;;;4972634;28;20106;-85
2020/12/25 13:45:17;;;;;;;5.90;3.67;;;3.90;96.90;;;;;;4962323;28;20061;-84
2020/12/25 13:47:43;;;;;;;7.25;3.80;;;3.90;96.60;;;;;;4987257;28;20074;-83
2020/12/25 13:50:10;;;;;;;6.50;3.40;;;3.90;96.90;;;;;;4960538;28;20654;-85
2020/12/25 13:52:37;;;;;;;6.57;3.35;;;4.00;96.40;;;;;;4962266;28;20125;-85
2020/12/25 13:55:04;;;;;;;5.68;3.45;;;3.90;96.70;;;;;;4980926;28;20057;-83
2020/12/25 13:57:31;;;;;;;7.53;3.47;;;4.00;96.60;;;;;;4982453;28;20644;-83
2020/12/25 13:59:58;;;;;;;13.55;6.65;;;3.90;96.50;;;;;;4968120;28;20136;-84
2020/12/25 14:02:26;;;;;;;8.25;4.30;;;4.00;96.40;;;;;;4981740;28;20507;-83
2020/12/25 14:04:53;;;;;;;6.55;3.50;;;4.00;96.30;;;;;;4965144;28;20129;-82
2020/12/25 14:07:20;;;;;;;6.75;3.80;;;3.90;96.60;;;;;;4980765;28;20069;-82
2020/12/25 14:09:46;;;;;;;5.97;3.55;;;4.00;96.50;;;;;;4964433;28;20125;-83
2020/12/25 14:12:15;;;;;;;6.35;3.38;;;4.00;95.80;;;;;;4964215;28;20133;-84
2020/12/25 14:14:41;;;;;;;5.70;3.38;;;4.00;96.00;;;;;;4961503;28;20078;-84
2020/12/25 14:17:09;;;;;;;7.55;3.80;;;4.10;96.20;;;;;;4982602;28;20078;-83
2020/12/25 14:19:35;;;;;;;7.95;3.38;;;4.10;95.80;;;;;;4970912;28;20085;-84
2020/12/25 14:22:02;;;;;;;6.68;3.50;;;4.00;96.10;;;;;;4985703;28;20089;-84
2020/12/25 14:24:28;;;;;;;6.10;3.60;;;4.10;95.80;;;;;;4965649;28;20101;-82
2020/12/25 14:26:55;;;;;;;10.10;3.83;;;4.10;95.30;;;;;;4978841;28;20057;-84
2020/12/25 14:29:22;;;;;;;6.63;3.63;;;4.00;95.30;;;;;;4963655;28;20137;-85
2020/12/25 14:31:49;;;;;;;6.00;3.42;;;4.00;95.20;;;;;;4977109;28;20022;-81
2020/12/25 14:34:16;;;;;;;7.32;4.03;;;3.80;94.70;;;;;;4976596;28;20050;-83
2020/12/25 14:36:43;;;;;;;6.63;3.83;;;3.90;95.20;;;;;;4996048;28;20075;-81
2020/12/25 14:39:11;;;;;;;6.45;3.63;;;3.60;95.00;;;;;;4995682;28;20046;-82
2020/12/25 14:41:38;;;;;;;7.60;3.67;;;3.50;94.80;;;;;;4975187;28;20055;-82
2020/12/25 14:50:09;;;;;;;6.60;3.80;;;3.60;95.10;;;;;;5295341;23;20046;-83
2020/12/25 14:52:36;;;;;;;9.02;3.88;;;3.60;95.30;;;;;;5000992;28;20092;-84
2020/12/25 14:55:33;;;;;;;6.25;3.50;;;3.70;94.40;;;;;;5025056;28;20100;-84
2020/12/25 14:57:59;;;;;;;6.35;3.70;;;3.80;94.50;;;;;;5003281;28;20102;-86
2020/12/25 15:00:26;;;;;;;6.53;3.67;;;3.80;94.60;;;;;;5015639;28;20110;-82
2020/12/25 15:02:53;;;;;;;6.13;3.45;;;3.70;94.60;;;;;;5007573;28;20132;-84
2020/12/25 15:05:20;;;;;;;7.95;3.85;;;3.80;94.20;;;;;;5015105;28;20056;-83
2020/12/25 15:07:48;;;;;;;6.82;3.50;;;3.70;94.40;;;;;;5031652;28;20076;-82
2020/12/25 15:10:15;;;;;;;6.53;3.40;;;3.70;94.00;;;;;;5021073;28;20084;-82
2020/12/25 15:12:41;;;;;;;6.22;3.58;;;3.70;94.40;;;;;;5014969;28;20073;-82
2020/12/25 15:15:09;;;;;;;7.97;3.58;;;3.70;94.00;;;;;;5023136;28;20049;-84
2020/12/25 15:17:36;;;;;;;7.05;3.50;;;3.70;94.20;;;;;;5030558;28;20518;-85
2020/12/25 15:20:03;;;;;;;7.88;3.65;;;3.80;94.10;;;;;;5029242;28;20045;-83
2020/12/25 15:22:31;;;;;;;8.23;3.30;;;3.70;94.00;;;;;;5012340;28;20064;-83
2020/12/25 15:24:58;;;;;;;6.63;3.67;;;3.80;93.60;;;;;;5021610;28;20461;-82
2020/12/25 15:27:24;;;;;;;7.47;3.30;;;3.80;94.00;;;;;;5010154;28;20038;-82
2020/12/25 15:29:53;;;;;;;6.47;3.60;;;3.90;93.80;;;;;;5031432;28;20065;-88
2020/12/25 15:32:19;;;;;;;5.70;3.30;;;3.90;93.80;;;;;;5013962;28;20049;-83
2020/12/25 15:39:58;;;;;;;5.70;3.70;;;3.80;93.70;;;;;;5413628;23;20058;-85
2020/12/25 15:42:25;;;;;;;5.72;3.47;;;3.80;93.80;;;;;;5026265;28;20086;-86
2020/12/25 15:44:57;;;;;;;6.22;3.72;;;3.80;93.80;;;;;;5013590;28;20092;-89
2020/12/25 15:47:24;;;;;;;7.28;3.72;;;3.80;94.00;;;;;;4985789;28;20053;-86
2020/12/25 15:55:08;;;;;;;6.53;3.33;;;3.80;93.70;;;;;;5240486;23;20061;-87
2020/12/25 15:57:35;;;;;;;6.60;3.10;;;3.90;94.00;;;;;;4973470;28;20042;-88
2020/12/25 16:00:04;;;;;;;6.82;3.67;;;3.80;93.50;;;;;;4978040;28;20093;-86
2020/12/25 16:16:35;;;;;;;4.50;2.53;;;3.70;93.00;;;;;;5858274;23;20105;-86
2020/12/25 16:19:02;;;;;;;5.57;2.60;;;3.70;93.20;;;;;;5028412;28;20467;-89
2020/12/25 16:21:29;;;;;;;5.22;2.90;;;3.80;93.20;;;;;;5002630;28;20120;-89
2020/12/25 16:23:56;;;;;;;5.75;3.10;;;3.80;92.70;;;;;;5029652;28;20085;-87
2020/12/25 16:26:23;;;;;;;5.82;2.60;;;3.80;92.40;;;;;;5022690;28;20101;-89
2020/12/25 16:28:50;;;;;;;4.70;2.45;;;3.70;92.70;;;;;;5003906;28;20071;-89
2020/12/25 16:31:17;;;;;;;4.78;2.50;;;3.80;92.60;;;;;;4999545;28;20137;-87
2020/12/25 16:33:45;;;;;;;22.73;9.77;;;3.80;92.60;;;;;;5027179;28;20053;-86
2020/12/25 16:36:16;;;;;;;11.70;5.70;;;3.60;91.80;;;;;;5023935;28;20045;-87
2020/12/25 16:38:43;;;;;;;5.32;2.50;;;3.70;91.20;;;;;;5033871;28;20045;-83
2020/12/25 16:41:13;;;;;;;5.25;2.53;;;3.60;91.20;;;;;;5032824;28;20084;-85
2020/12/25 16:43:40;;;;;;;5.15;2.38;;;3.70;91.10;;;;;;5028795;28;20050;-85
2020/12/25 16:46:08;;;;;;;5.53;2.10;;;3.80;91.20;;;;;;5007201;28;20057;-85
2020/12/25 16:48:35;;;;;;;4.75;2.65;;;3.80;90.60;;;;;;5010960;28;20049;-86
2020/12/25 16:51:03;;;;;;;5.20;2.75;;;3.80;91.20;;;;;;5020232;28;20060;-87
2020/12/25 16:53:30;;;;;;;3.90;2.20;;;3.80;91.00;;;;;;5018039;28;20128;-86
2020/12/25 16:55:57;;;;;;;6.25;2.70;;;3.90;91.00;;;;;;5009557;28;20096;-85
2020/12/25 17:00:59;;;;;;;6.22;2.65;;;4.00;91.30;;;;;;5785663;23;19922;-92
2020/12/25 17:03:26;;;;;;;7.47;3.38;;;4.10;91.10;;;;;;4988679;28;20117;-92
2020/12/25 17:05:56;;;;;;;6.15;2.80;;;4.20;90.90;;;;;;4983431;28;20090;-89
2020/12/25 17:08:24;;;;;;;10.75;5.07;;;4.20;90.10;;;;;;4945335;29;20505;-88
2020/12/25 17:10:51;;;;;;;12.23;4.90;;;4.20;90.40;;;;;;4971421;28;20086;-89
2020/12/25 17:13:18;;;;;;;5.80;2.95;;;4.20;90.60;;;;;;4963180;28;20043;-91
2020/12/25 17:15:46;;;;;;;6.40;2.67;;;4.20;90.30;;;;;;4958653;28;20050;-88
2020/12/25 17:18:13;;;;;;;5.00;2.30;;;4.20;90.30;;;;;;4975944;28;20062;-87
2020/12/25 17:20:41;;;;;;;14.82;6.80;;;4.20;90.40;;;;;;4955468;28;20055;-86
2020/12/25 17:23:07;;;;;;;19.80;8.48;;;4.20;90.70;;;;;;4952483;28;20141;-83
2020/12/25 17:25:35;;;;;;;6.80;3.42;;;4.30;90.50;;;;;;4953929;28;20058;-87
2020/12/25 17:28:02;;;;;;;8.52;3.60;;;4.20;90.60;;;;;;4972832;28;20061;-85
2020/12/25 17:30:29;;;;;;;7.50;3.38;;;4.20;90.10;;;;;;4955706;28;20074;-81
2020/12/25 17:32:55;;;;;;;8.65;3.90;;;4.20;90.20;;;;;;4973734;28;20149;-86
2020/12/25 17:35:22;;;;;;;14.20;5.40;;;4.20;90.40;;;;;;4973464;28;20059;-83
2020/12/25 17:37:49;;;;;;;10.63;4.90;;;4.20;90.60;;;;;;4958227;28;20050;-83
2020/12/25 17:40:16;;;;;;;6.57;3.63;;;4.20;90.90;;;;;;4950984;28;20760;-83
2020/12/25 17:42:45;;;;;;;6.80;3.35;;;4.30;91.00;;;;;;4974932;28;20047;-82
2020/12/25 17:45:11;;;;;;;5.72;2.97;;;4.20;90.70;;;;;;4972738;28;20142;-81
2020/12/25 17:47:38;;;;;;;7.25;3.17;;;4.20;90.70;;;;;;4973242;28;20054;-80
2020/12/25 17:50:07;;;;;;;5.55;2.97;;;4.20;91.00;;;;;;4972770;28;20137;-86
2020/12/25 17:52:39;;;;;;;5.00;2.70;;;4.20;90.80;;;;;;4972466;28;20133;-89
2020/12/25 17:55:06;;;;;;;5.88;2.88;;;4.20;90.00;;;;;;4964529;28;20055;-88
2020/12/25 17:57:32;;;;;;;5.57;2.90;;;4.20;90.20;;;;;;4944503;28;20627;-84
2020/12/25 18:00:01;;;;;;;6.88;3.30;;;4.20;90.70;;;;;;4977537;28;20138;-88
2020/12/25 18:02:27;;;;;;;7.10;3.58;;;4.20;90.90;;;;;;4976597;28;20542;-88
2020/12/25 18:04:55;;;;;;;6.68;3.50;;;4.10;90.80;;;;;;4974508;28;20057;-86
2020/12/25 18:07:22;;;;;;;8.57;4.28;;;4.20;90.70;;;;;;4972824;28;20621;-85
2020/12/25 18:09:49;;;;;;;7.22;3.70;;;4.10;90.30;;;;;;4973885;28;20130;-84
2020/12/25 18:12:16;;;;;;;6.00;3.47;;;4.10;90.20;;;;;;4956941;28;20145;-89
2020/12/25 18:14:43;;;;;;;5.95;3.25;;;4.10;90.20;;;;;;4973348;28;20050;-78
2020/12/25 18:17:11;;;;;;;7.15;4.10;;;4.00;90.30;;;;;;4974505;28;20145;-85
2020/12/25 18:19:38;;;;;;;8.00;3.42;;;4.00;90.40;;;;;;4972347;28;20141;-85
2020/12/25 18:22:05;;;;;;;5.28;3.05;;;4.00;90.60;;;;;;4972282;28;20163;-88
2020/12/25 18:24:32;;;;;;;6.65;3.45;;;4.10;90.90;;;;;;4958014;28;20115;-86
2020/12/25 18:26:58;;;;;;;6.72;3.15;;;4.00;90.80;;;;;;4957882;28;20062;-84
2020/12/25 18:29:25;;;;;;;5.63;3.20;;;4.00;90.60;;;;;;4954819;29;20150;-83
2020/12/25 18:31:53;;;;;;;6.60;3.60;;;3.90;90.80;;;;;;4968931;28;20063;-86
2020/12/25 18:34:21;;;;;;;8.93;3.90;;;3.90;90.70;;;;;;4957567;28;20141;-85
2020/12/25 18:36:48;;;;;;;5.53;3.45;;;3.90;90.90;;;;;;4955784;28;20058;-81
2020/12/25 18:39:14;;;;;;;5.82;3.35;;;3.90;90.80;;;;;;4975294;28;20053;-81
2020/12/25 18:41:41;;;;;;;6.00;3.13;;;3.90;91.10;;;;;;4976028;28;20463;-82
2020/12/25 18:44:08;;;;;;;5.85;3.25;;;3.90;91.00;;;;;;4989888;28;20118;-91
2020/12/25 18:46:34;;;;;;;8.20;3.33;;;3.90;91.20;;;;;;4991335;28;20137;-89
2020/12/25 19:26:01;;;;;;;8.02;4.57;;;3.50;92.80;;;;;;5673098;23;20040;-83
2020/12/25 19:28:28;;;;;;;8.98;4.43;;;3.50;92.80;;;;;;5000096;28;20129;-82
2020/12/25 19:30:54;;;;;;;6.70;4.05;;;3.50;92.80;;;;;;4998140;28;20102;-81
2020/12/25 19:33:21;;;;;;;9.25;5.00;;;3.50;92.80;;;;;;4999909;28;20129;-82
2020/12/25 19:35:50;;;;;;;9.30;4.72;;;3.50;92.80;;;;;;4987523;28;20053;-80
2020/12/25 19:38:17;;;;;;;7.28;3.95;;;3.50;93.40;;;;;;5011297;28;20060;-81
2020/12/25 19:40:44;;;;;;;9.20;4.57;;;3.40;94.00;;;;;;5011443;28;20054;-80
2020/12/25 19:43:13;;;;;;;10.45;5.82;;;3.20;94.20;;;;;;5011495;28;20061;-81
2020/12/25 19:45:40;;;;;;;8.73;4.97;;;3.10;93.70;;;;;;5007795;28;20096;-81
2020/12/25 19:48:07;;;;;;;8.40;4.57;;;3.20;93.80;;;;;;5002913;28;20479;-82
2020/12/25 19:50:33;;;;;;;9.63;5.05;;;3.20;93.60;;;;;;4999713;28;20129;-83
2020/12/25 19:53:01;;;;;;;6.53;4.10;;;3.30;93.30;;;;;;4999703;28;20611;-82
2020/12/25 19:55:27;;;;;;;7.47;4.30;;;3.30;94.00;;;;;;4982006;28;20495;-81
2020/12/25 19:57:54;;;;;;;9.63;4.70;;;3.20;94.50;;;;;;4996329;28;20077;-81
2020/12/25 20:00:22;;;;;;;7.75;4.65;;;3.10;94.60;;;;;;4982890;28;20054;-81
2020/12/25 20:02:48;;;;;;;6.63;4.43;;;3.00;94.00;;;;;;5016161;28;20049;-80
2020/12/25 20:05:20;;;;;;;7.80;4.55;;;3.00;94.80;;;;;;4994453;28;20093;-80
2020/12/25 20:07:51;;;;;;;9.45;4.90;;;2.90;94.30;;;;;;5012584;28;20077;-81
2020/12/25 20:10:18;;;;;;;9.73;5.55;;;2.90;94.10;;;;;;5007841;28;20078;-80
2020/12/25 20:12:47;;;;;;;8.27;4.30;;;3.00;94.20;;;;;;5004643;28;20081;-80
2020/12/25 20:15:18;;;;;;;8.68;4.50;;;2.90;94.70;;;;;;5004718;28;20065;-81
2020/12/25 20:17:47;;;;;;;7.05;4.32;;;2.80;95.10;;;;;;4988879;28;20047;-79
2020/12/25 21:32:31;;;;;;;10.93;5.53;;;2.30;96.10;;;;;;4989128;23;20306;-82
